John_paul K — PBHY — position and weather

sailwx.info

Track history (hours):
 
Tides and Currents Weather Stations Pressure Air Temp Water Temp Dewpoint Dewpoint Depression Visibility Wind Speed Wind Dir Waves Ship Positions

John_paul K

Last reported at 2015-Apr-01 19:19 UTC. Time now 2015-Apr-02 00:14 UTC.
Position N 40°42' E 013°46'.

Length 90 m; draft 5 m.

Type: Cargo ship. MMSI: 245181000.

Date/timePositionNaut miles runAvg speedWind from/ knotsBaromVisibWave heightAir tempDewpointWater temp
2015-Apr-01 19:19N 40°42' E 013°46'7 9.8
2015-Apr-01 18:33N 40°47' E 013°38'1110.0
2015-Apr-01 17:27N 40°53' E 013°27'910.0
2015-Apr-01 16:33N 40°59' E 013°18'180 6.1
2015-Mar-31 11:04N 42°55' E 010°13'5 9.3
2015-Mar-31 10:33N 42°55' E 010°06'12 9.2
2015-Mar-31 09:18N 42°56' E 009°50'6 8.6
2015-Mar-31 08:33N 42°57' E 009°42'22 9.1
2015-Mar-31 06:07N 43°03' E 009°12'5 9.3
2015-Mar-31 05:32N 43°03' E 009°05'3510.9
2015-Mar-31 02:18N 43°01' E 008°17'810.7
2015-Mar-31 01:33N 43°01' E 008°06'1110.5
2015-Mar-31 00:32N 43°00' E 007°51'2510.5
2015-Mar-30 22:10N 42°59' E 007°17'610.3
2015-Mar-30 21:33N 42°59' E 007°09'1010.0
2015-Mar-30 20:33N 42°58' E 006°55'10 9.9
2015-Mar-30 19:33N 42°58' E 006°42'9 9.5
2015-Mar-30 18:33N 42°57' E 006°29'25 9.9
2015-Mar-30 16:04N 43°00' E 005°55'35 9.9
2015-Mar-30 12:34N 43°12' E 005°11'1010.1
2015-Mar-30 11:33N 43°19' E 004°60'8 8.4
2015-Mar-30 10:33N 43°26' E 004°53'0 0.0
2015-Mar-30 09:22N 43°26' E 004°53'0 0.0
2015-Mar-30 08:28N 43°26' E 004°53'0 0.0
2015-Mar-30 07:28N 43°26' E 004°53'0 0.0
2015-Mar-30 06:28N 43°26' E 004°53'0 0.0
2015-Mar-30 05:28N 43°26' E 004°53'0 0.0
2015-Mar-30 04:28N 43°26' E 004°53'0 0.0
2015-Mar-30 03:31N 43°26' E 004°53'0 0.0
2015-Mar-30 02:28N 43°26' E 004°53'0 0.0
2015-Mar-30 01:28N 43°26' E 004°53'0 0.0
2015-Mar-30 00:28N 43°26' E 004°53'0 0.0
2015-Mar-29 23:28N 43°26' E 004°53'0 0.0
2015-Mar-29 22:28N 43°26' E 004°53'0 0.0
2015-Mar-29 21:28N 43°26' E 004°53'0 0.0
2015-Mar-29 20:28N 43°26' E 004°53'0 0.0
2015-Mar-29 19:28N 43°26' E 004°53'0 0.0
2015-Mar-29 18:28N 43°26' E 004°53'0 0.0
2015-Mar-29 17:33N 43°26' E 004°53'2 2.0
2015-Mar-29 16:29N 43°24' E 004°55'0 0.0
2015-Mar-29 15:29N 43°24' E 004°55'0 0.0
2015-Mar-29 14:32N 43°24' E 004°55'0 0.0
2015-Mar-29 13:32N 43°24' E 004°55'0 0.0
2015-Mar-29 12:26N 43°24' E 004°55'0 0.0
2015-Mar-29 11:32N 43°24' E 004°55'0 0.0
2015-Mar-29 10:29N 43°24' E 004°55'2 2.0
2015-Mar-29 09:33N 43°23' E 004°57'9 8.5
2015-Mar-29 08:33N 43°16' E 004°51'2220.4
2015-Mar-29 07:28N 43°05' E 004°24'64 7.2
2015-Mar-28 22:30N 42°20' E 003°21'10 8.4
2015-Mar-28 21:15N 42°10' E 003°19'8 9.2
2015-Mar-28 20:20N 42°02' E 003°17'910.5
2015-Mar-28 19:29N 41°53' E 003°14'8 8.0
2015-Mar-28 18:29N 41°47' E 003°07'10 9.8
2015-Mar-28 17:29N 41°40' E 002°57'9 9.8
2015-Mar-28 16:33N 41°34' E 002°48'1110.2
2015-Mar-28 15:27N 41°28' E 002°36'10 9.8
2015-Mar-28 14:28N 41°22' E 002°26'21 9.8
2015-Mar-28 12:18N 41°09' E 002°03'8 9.8
2015-Mar-28 11:30N 41°05' E 001°54'9 9.1
2015-Mar-28 10:32N 40°60' E 001°45'10 9.2
2015-Mar-28 09:28N 40°54' E 001°34'1311.2
2015-Mar-28 08:16N 40°46' E 001°20'13 7.5
2015-Mar-28 06:34N 40°34' E 001°15'8 8.1
2015-Mar-28 05:32N 40°29' E 001°07'8 8.3
2015-Mar-28 04:33N 40°23' E 000°59'  
2015-Mar-25 18:16N 39°38' W 000°13'3 3.5
2015-Mar-25 17:24N 39°35' W 000°11'0 0.0
2015-Mar-25 16:27N 39°35' W 000°11'0 0.0
2015-Mar-25 15:21N 39°35' W 000°11'0 0.0
2015-Mar-25 13:14N 39°35' W 000°11'96 8.2
2015-Mar-25 01:33N 37°59' W 000°09'1310.6
2015-Mar-25 00:17N 37°48' W 000°18'810.4
2015-Mar-24 23:33N 37°42' W 000°24'1010.4
2015-Mar-24 22:33N 37°33' W 000°31'1110.3
2015-Mar-24 21:32N 37°26' W 000°40'1110.8
2015-Mar-24 20:33N 37°19' W 000°50'1110.8
2015-Mar-24 19:30N 37°11' W 001°01'21911.0
2015-Mar-23 23:34N 35°58' W 005°17'271 9.9
2015-Mar-22 20:15N 38°22' W 010°05'  
Track history (hours):
 
Tides and Currents Weather Stations Pressure Air Temp Water Temp Dewpoint Dewpoint Depression Visibility Wind Speed Wind Dir Waves Ship Positions

John_paul K

Last reported at 2015-Apr-01 19:19 UTC. Time now 2015-Apr-02 00:14 UTC.
Position N 40°42' E 013°46'.

Length 90 m; draft 5 m.

Type: Cargo ship. MMSI: 245181000.

Date/timePositionNaut miles runAvg speedWind from/ knotsBaromVisibWave heightAir tempDewpointWater temp
2015-Apr-01 19:19N 40°42' E 013°46'7 9.8
2015-Apr-01 18:33N 40°47' E 013°38'1110.0
2015-Apr-01 17:27N 40°53' E 013°27'910.0
2015-Apr-01 16:33N 40°59' E 013°18'180 6.1
2015-Mar-31 11:04N 42°55' E 010°13'5 9.3
2015-Mar-31 10:33N 42°55' E 010°06'12 9.2
2015-Mar-31 09:18N 42°56' E 009°50'6 8.6
2015-Mar-31 08:33N 42°57' E 009°42'22 9.1
2015-Mar-31 06:07N 43°03' E 009°12'5 9.3
2015-Mar-31 05:32N 43°03' E 009°05'3510.9
2015-Mar-31 02:18N 43°01' E 008°17'810.7
2015-Mar-31 01:33N 43°01' E 008°06'1110.5
2015-Mar-31 00:32N 43°00' E 007°51'2510.5
2015-Mar-30 22:10N 42°59' E 007°17'610.3
2015-Mar-30 21:33N 42°59' E 007°09'1010.0
2015-Mar-30 20:33N 42°58' E 006°55'10 9.9
2015-Mar-30 19:33N 42°58' E 006°42'9 9.5
2015-Mar-30 18:33N 42°57' E 006°29'25 9.9
2015-Mar-30 16:04N 43°00' E 005°55'35 9.9
2015-Mar-30 12:34N 43°12' E 005°11'1010.1
2015-Mar-30 11:33N 43°19' E 004°60'8 8.4
2015-Mar-30 10:33N 43°26' E 004°53'0 0.0
2015-Mar-30 09:22N 43°26' E 004°53'0 0.0
2015-Mar-30 08:28N 43°26' E 004°53'0 0.0
2015-Mar-30 07:28N 43°26' E 004°53'0 0.0
2015-Mar-30 06:28N 43°26' E 004°53'0 0.0
2015-Mar-30 05:28N 43°26' E 004°53'0 0.0
2015-Mar-30 04:28N 43°26' E 004°53'0 0.0
2015-Mar-30 03:31N 43°26' E 004°53'0 0.0
2015-Mar-30 02:28N 43°26' E 004°53'0 0.0
2015-Mar-30 01:28N 43°26' E 004°53'0 0.0
2015-Mar-30 00:28N 43°26' E 004°53'0 0.0
2015-Mar-29 23:28N 43°26' E 004°53'0 0.0
2015-Mar-29 22:28N 43°26' E 004°53'0 0.0
2015-Mar-29 21:28N 43°26' E 004°53'0 0.0
2015-Mar-29 20:28N 43°26' E 004°53'0 0.0
2015-Mar-29 19:28N 43°26' E 004°53'0 0.0
2015-Mar-29 18:28N 43°26' E 004°53'0 0.0
2015-Mar-29 17:33N 43°26' E 004°53'2 2.0
2015-Mar-29 16:29N 43°24' E 004°55'0 0.0
2015-Mar-29 15:29N 43°24' E 004°55'0 0.0
2015-Mar-29 14:32N 43°24' E 004°55'0 0.0
2015-Mar-29 13:32N 43°24' E 004°55'0 0.0
2015-Mar-29 12:26N 43°24' E 004°55'0 0.0
2015-Mar-29 11:32N 43°24' E 004°55'0 0.0
2015-Mar-29 10:29N 43°24' E 004°55'2 2.0
2015-Mar-29 09:33N 43°23' E 004°57'9 8.5
2015-Mar-29 08:33N 43°16' E 004°51'2220.4
2015-Mar-29 07:28N 43°05' E 004°24'64 7.2
2015-Mar-28 22:30N 42°20' E 003°21'10 8.4
2015-Mar-28 21:15N 42°10' E 003°19'8 9.2
2015-Mar-28 20:20N 42°02' E 003°17'910.5
2015-Mar-28 19:29N 41°53' E 003°14'8 8.0
2015-Mar-28 18:29N 41°47' E 003°07'10 9.8
2015-Mar-28 17:29N 41°40' E 002°57'9 9.8
2015-Mar-28 16:33N 41°34' E 002°48'1110.2
2015-Mar-28 15:27N 41°28' E 002°36'10 9.8
2015-Mar-28 14:28N 41°22' E 002°26'21 9.8
2015-Mar-28 12:18N 41°09' E 002°03'8 9.8
2015-Mar-28 11:30N 41°05' E 001°54'9 9.1
2015-Mar-28 10:32N 40°60' E 001°45'10 9.2
2015-Mar-28 09:28N 40°54' E 001°34'1311.2
2015-Mar-28 08:16N 40°46' E 001°20'13 7.5
2015-Mar-28 06:34N 40°34' E 001°15'8 8.1
2015-Mar-28 05:32N 40°29' E 001°07'8 8.3
2015-Mar-28 04:33N 40°23' E 000°59'  
2015-Mar-25 18:16N 39°38' W 000°13'3 3.5
2015-Mar-25 17:24N 39°35' W 000°11'0 0.0
2015-Mar-25 16:27N 39°35' W 000°11'0 0.0
2015-Mar-25 15:21N 39°35' W 000°11'0 0.0
2015-Mar-25 13:14N 39°35' W 000°11'96 8.2
2015-Mar-25 01:33N 37°59' W 000°09'1310.6
2015-Mar-25 00:17N 37°48' W 000°18'810.4
2015-Mar-24 23:33N 37°42' W 000°24'1010.4
2015-Mar-24 22:33N 37°33' W 000°31'1110.3
2015-Mar-24 21:32N 37°26' W 000°40'1110.8
2015-Mar-24 20:33N 37°19' W 000°50'1110.8
2015-Mar-24 19:30N 37°11' W 001°01'21911.0
2015-Mar-23 23:34N 35°58' W 005°17'271 9.9
2015-Mar-22 20:15N 38°22' W 010°05'  

Dump ship's entire track history